createdAt,value
2019-05-30T00:00:16.080Z,4.57
2019-05-30T00:02:33.287Z,4.70
2019-05-30T00:05:02.750Z,4.57
2019-05-30T00:07:31.922Z,4.47
2019-05-30T00:10:02.819Z,4.87
2019-05-30T00:12:32.184Z,5.37
2019-05-30T00:15:01.332Z,4.90
2019-05-30T00:17:30.508Z,4.97
2019-05-30T00:20:01.004Z,4.77
2019-05-30T00:22:30.126Z,5.30
2019-05-30T00:25:00.026Z,5.90
2019-05-30T00:27:29.409Z,5.00
2019-05-30T00:29:59.286Z,5.50
2019-05-30T00:32:28.652Z,5.10
2019-05-30T00:34:58.135Z,4.97
2019-05-30T00:37:27.243Z,5.13
2019-05-30T00:39:57.759Z,4.50
2019-05-30T00:42:26.921Z,4.80
2019-05-30T00:44:56.111Z,4.63
2019-05-30T00:47:25.149Z,4.60
2019-05-30T00:49:54.481Z,4.50
2019-05-30T00:52:23.574Z,4.70
2019-05-30T00:54:52.840Z,4.67
2019-05-30T00:57:22.048Z,4.70
2019-05-30T00:59:51.158Z,4.70
2019-05-30T01:02:20.536Z,4.80
2019-05-30T01:04:49.630Z,5.00
2019-05-30T01:07:18.836Z,4.80
2019-05-30T01:09:48.162Z,5.17
2019-05-30T01:12:17.242Z,4.80
2019-05-30T01:14:46.674Z,4.93
2019-05-30T01:17:15.752Z,6.10
2019-05-30T01:19:44.995Z,4.77
2019-05-30T01:22:14.332Z,5.27
2019-05-30T01:24:43.756Z,4.90
2019-05-30T01:27:12.823Z,5.20
2019-05-30T01:29:41.853Z,4.93
2019-05-30T01:32:30.089Z,4.80
2019-05-30T01:35:01.954Z,4.40
2019-05-30T01:37:31.195Z,5.30
2019-05-30T01:40:00.279Z,4.53
2019-05-30T01:42:29.343Z,5.10
2019-05-30T01:45:00.121Z,4.47
2019-05-30T01:47:29.389Z,5.00
2019-05-30T01:49:58.429Z,4.70
2019-05-30T01:52:27.512Z,4.87
2019-05-30T01:54:56.535Z,5.07
2019-05-30T01:57:25.756Z,4.93
2019-05-30T01:59:54.924Z,5.90
2019-05-30T02:02:24.235Z,5.30
2019-05-30T02:04:53.319Z,5.00
2019-05-30T02:07:22.425Z,5.13
2019-05-30T02:09:52.083Z,5.37
2019-05-30T02:12:21.305Z,6.20
2019-05-30T02:14:50.471Z,5.10
2019-05-30T02:17:19.515Z,5.23
2019-05-30T02:19:48.781Z,5.40
2019-05-30T02:22:18.025Z,4.97
2019-05-30T02:24:47.189Z,5.70
2019-05-30T02:27:16.498Z,5.20
2019-05-30T02:29:45.545Z,5.43
2019-05-30T02:32:14.752Z,5.90
2019-05-30T02:34:44.035Z,5.40
2019-05-30T02:37:13.321Z,5.30
2019-05-30T02:39:42.608Z,5.37
2019-05-30T02:42:11.883Z,6.30
2019-05-30T02:44:40.958Z,5.90
2019-05-30T02:47:11.585Z,6.40
2019-05-30T02:49:40.821Z,5.10
2019-05-30T02:52:10.821Z,5.47
2019-05-30T02:54:40.948Z,5.03
2019-05-30T02:57:10.674Z,5.33
2019-05-30T02:59:41.361Z,5.43
2019-05-30T03:02:15.218Z,5.50
2019-05-30T03:04:41.527Z,4.53
2019-05-30T03:07:12.533Z,5.87
2019-05-30T03:09:41.963Z,6.40
2019-05-30T03:12:13.200Z,5.50
2019-05-30T03:14:42.040Z,5.43
2019-05-30T03:17:12.584Z,5.27
2019-05-30T03:19:41.844Z,5.57
2019-05-30T03:22:12.239Z,6.33
2019-05-30T03:24:41.835Z,6.07
2019-05-30T03:27:12.325Z,6.40
2019-05-30T03:29:42.066Z,6.50
2019-05-30T03:32:56.181Z,5.20
2019-05-30T03:34:43.735Z,6.40
2019-05-30T03:37:23.144Z,5.20
2019-05-30T03:39:44.478Z,5.43
2019-05-30T03:42:15.687Z,6.10
2019-05-30T03:44:44.774Z,5.93
2019-05-30T03:47:15.675Z,5.87
2019-05-30T03:49:46.214Z,5.33
2019-05-30T03:52:17.543Z,6.33
2019-05-30T03:54:47.262Z,5.90
2019-05-30T03:57:22.988Z,5.93
2019-05-30T03:59:57.963Z,5.70
2019-05-30T04:02:55.363Z,5.97
2019-05-30T04:05:14.180Z,6.10
2019-05-30T04:07:48.579Z,5.93
2019-05-30T04:10:20.005Z,5.97
2019-05-30T04:13:00.770Z,5.57
2019-05-30T04:15:33.835Z,5.70
2019-05-30T04:18:02.913Z,5.40
2019-05-30T04:20:32.379Z,5.20
2019-05-30T04:23:01.563Z,5.80
2019-05-30T04:25:30.805Z,5.43
2019-05-30T04:28:00.354Z,4.77
2019-05-30T04:30:29.396Z,5.87
2019-05-30T04:33:16.203Z,5.73
2019-05-30T04:35:29.604Z,5.10
2019-05-30T04:37:58.877Z,4.90
2019-05-30T04:40:28.208Z,5.10
2019-05-30T04:42:57.286Z,5.13
2019-05-30T04:45:28.367Z,5.30
2019-05-30T04:47:57.710Z,5.37
2019-05-30T04:50:26.795Z,5.37
2019-05-30T04:52:56.265Z,5.83
2019-05-30T04:55:25.298Z,4.57
2019-05-30T04:57:54.633Z,5.40
2019-05-30T05:00:23.939Z,5.37
2019-05-30T05:02:53.138Z,5.53
2019-05-30T05:05:26.285Z,4.87
2019-05-30T05:07:52.963Z,5.27
2019-05-30T05:10:22.528Z,5.10
2019-05-30T05:12:51.825Z,5.53
2019-05-30T05:15:22.631Z,5.23
2019-05-30T05:17:51.694Z,4.70
2019-05-30T05:20:21.469Z,4.30
2019-05-30T05:22:50.630Z,4.53
2019-05-30T05:25:19.796Z,4.93
2019-05-30T05:27:49.158Z,4.07
2019-05-30T05:30:18.372Z,4.93
2019-05-30T05:32:47.407Z,5.30
2019-05-30T05:35:16.868Z,4.63
2019-05-30T05:37:45.924Z,5.00
2019-05-30T05:40:16.047Z,4.50
2019-05-30T05:42:45.523Z,4.60
2019-05-30T05:45:14.635Z,4.40
2019-05-30T05:47:43.860Z,4.17
2019-05-30T05:50:13.638Z,4.83
2019-05-30T05:52:42.660Z,4.57
2019-05-30T05:55:12.477Z,5.83
2019-05-30T05:57:41.662Z,7.03
2019-05-30T06:00:11.166Z,4.80
2019-05-30T06:02:40.247Z,3.87
2019-05-30T06:05:09.401Z,3.50
2019-05-30T06:07:38.541Z,3.60
2019-05-30T06:10:08.002Z,3.60
2019-05-30T06:12:37.187Z,4.03
2019-05-30T06:15:06.609Z,3.33
2019-05-30T06:17:35.758Z,3.47
2019-05-30T06:20:05.329Z,3.53
2019-05-30T06:22:34.377Z,3.63
2019-05-30T06:25:04.307Z,3.10
2019-05-30T06:27:33.402Z,3.80
2019-05-30T06:30:02.528Z,3.97
2019-05-30T06:32:31.680Z,3.57
2019-05-30T06:35:01.019Z,3.80
2019-05-30T06:37:30.266Z,3.40
2019-05-30T06:39:59.578Z,4.10
2019-05-30T06:42:30.202Z,3.47
2019-05-30T06:44:59.384Z,3.37
2019-05-30T06:47:28.525Z,3.23
2019-05-30T06:49:57.606Z,3.47
2019-05-30T06:52:27.133Z,3.50
2019-05-30T06:54:56.186Z,3.30
2019-05-30T06:57:25.437Z,4.10
2019-05-30T06:59:54.503Z,3.70
2019-05-30T07:02:24.243Z,3.70
2019-05-30T07:04:54.216Z,3.30
2019-05-30T07:07:25.041Z,3.40
2019-05-30T07:09:54.339Z,2.90
2019-05-30T07:12:23.367Z,3.23
2019-05-30T07:14:52.424Z,3.10
2019-05-30T07:17:21.701Z,3.37
2019-05-30T07:19:50.849Z,2.67
2019-05-30T07:22:20.084Z,2.73
2019-05-30T07:24:49.394Z,2.92
2019-05-30T07:27:18.464Z,3.13
2019-05-30T07:29:47.841Z,3.57
2019-05-30T07:32:16.989Z,3.57
2019-05-30T07:34:46.279Z,4.10
2019-05-30T07:37:15.423Z,3.73
2019-05-30T07:39:44.770Z,3.87
2019-05-30T07:42:15.743Z,3.93
2019-05-30T07:44:44.936Z,3.63
2019-05-30T07:47:14.166Z,3.37
2019-05-30T07:49:43.500Z,4.40
2019-05-30T07:52:12.719Z,4.57
2019-05-30T07:54:41.919Z,3.90
2019-05-30T07:57:11.214Z,4.00
2019-05-30T07:59:40.367Z,4.43
2019-05-30T08:02:09.642Z,3.97
2019-05-30T08:04:42.050Z,4.10
2019-05-30T08:07:11.117Z,3.40
2019-05-30T08:09:40.520Z,3.60
2019-05-30T08:12:09.647Z,3.53
2019-05-30T08:14:39.685Z,3.40
2019-05-30T08:17:08.964Z,4.47
2019-05-30T08:19:38.302Z,4.50
2019-05-30T08:22:07.468Z,4.40
2019-05-30T08:24:36.571Z,4.00
2019-05-30T08:27:06.063Z,4.30
2019-05-30T08:29:36.365Z,4.20
2019-05-30T08:32:05.743Z,4.20
2019-05-30T08:34:34.748Z,4.17
2019-05-30T08:37:03.838Z,4.10
2019-05-30T08:39:33.019Z,4.00
2019-05-30T08:42:02.151Z,3.53
2019-05-30T08:44:31.638Z,4.67
2019-05-30T08:47:00.796Z,3.83
2019-05-30T08:49:29.945Z,4.07
2019-05-30T08:51:58.981Z,4.03
2019-05-30T08:54:28.228Z,3.90
2019-05-30T08:56:57.325Z,4.00
2019-05-30T08:59:26.483Z,3.70
2019-05-30T09:01:55.776Z,3.97
2019-05-30T09:04:25.178Z,4.20
2019-05-30T09:06:54.362Z,3.27
2019-05-30T09:09:23.492Z,3.20
2019-05-30T09:11:52.686Z,3.60
2019-05-30T09:14:22.052Z,3.70
2019-05-30T09:16:51.208Z,3.60
2019-05-30T09:19:20.439Z,3.47
2019-05-30T09:21:49.570Z,3.40
2019-05-30T09:24:18.813Z,3.33
2019-05-30T09:26:50.318Z,3.20
2019-05-30T09:29:19.100Z,4.20
2019-05-30T09:31:48.737Z,3.40
2019-05-30T09:34:17.887Z,4.07
2019-05-30T09:36:47.015Z,3.47
2019-05-30T09:39:16.066Z,3.67
2019-05-30T09:41:45.713Z,2.73
2019-05-30T09:44:14.804Z,3.50
2019-05-30T09:46:44.223Z,3.37
2019-05-30T09:49:13.350Z,3.70
2019-05-30T09:51:43.616Z,3.40
2019-05-30T09:54:13.348Z,3.50
2019-05-30T09:56:43.868Z,4.00
2019-05-30T09:59:13.704Z,2.90
2019-05-30T10:01:44.247Z,3.10
2019-05-30T10:04:13.463Z,2.57
2019-05-30T10:06:43.592Z,2.70
2019-05-30T10:09:13.654Z,3.00
2019-05-30T10:11:44.195Z,3.43
2019-05-30T10:14:14.307Z,3.20
2019-05-30T10:16:47.561Z,3.00
2019-05-30T10:19:14.431Z,2.87
2019-05-30T10:21:45.452Z,3.13
2019-05-30T10:24:14.341Z,2.30
2019-05-30T10:26:43.367Z,2.67
2019-05-30T10:29:12.400Z,2.50
2019-05-30T10:31:41.576Z,2.00
2019-05-30T10:34:10.742Z,2.60
2019-05-30T10:36:44.295Z,2.73
2019-05-30T10:39:11.029Z,2.10
2019-05-30T10:41:40.358Z,2.40
2019-05-30T10:44:09.436Z,2.60
2019-05-30T10:46:48.622Z,2.80
2019-05-30T10:49:31.512Z,2.30
2019-05-30T10:51:49.604Z,2.40
2019-05-30T10:54:19.132Z,2.10
2019-05-30T10:56:48.781Z,2.20
2019-05-30T10:59:19.496Z,2.20
2019-05-30T11:01:50.233Z,2.03
2019-05-30T11:04:20.139Z,2.27
2019-05-30T11:07:11.060Z,2.23
2019-05-30T11:09:36.316Z,2.77
2019-05-30T11:12:05.473Z,2.30
2019-05-30T11:14:34.526Z,2.40
2019-05-30T11:17:03.786Z,2.17
2019-05-30T11:19:32.853Z,2.33
2019-05-30T11:22:01.927Z,2.47
2019-05-30T11:24:31.274Z,2.63
2019-05-30T11:27:00.363Z,2.93
2019-05-30T11:29:29.816Z,2.23
2019-05-30T11:31:59.135Z,2.23
2019-05-30T11:34:28.222Z,2.23
2019-05-30T11:36:57.352Z,2.20
2019-05-30T11:39:26.435Z,2.20
2019-05-30T11:41:55.778Z,2.63
2019-05-30T11:44:25.052Z,2.23
2019-05-30T11:46:54.223Z,3.70
2019-05-30T11:49:23.537Z,2.50
2019-05-30T11:51:53.675Z,3.37
2019-05-30T11:54:23.001Z,2.67
2019-05-30T11:56:52.089Z,3.33
2019-05-30T11:59:21.382Z,2.10
2019-05-30T12:01:50.456Z,3.60
2019-05-30T12:04:20.834Z,2.47
2019-05-30T12:06:51.138Z,5.70
2019-05-30T12:09:20.858Z,2.30
2019-05-30T12:11:50.964Z,2.23
2019-05-30T12:14:21.600Z,2.30
2019-05-30T12:16:51.139Z,2.73
2019-05-30T12:19:20.428Z,2.77
2019-05-30T12:21:49.559Z,2.77
2019-05-30T12:24:18.605Z,2.90
2019-05-30T12:26:47.722Z,3.00
2019-05-30T12:29:16.859Z,3.10
2019-05-30T12:31:45.988Z,3.10
2019-05-30T12:34:15.293Z,2.40
2019-05-30T12:36:44.397Z,2.10
2019-05-30T12:39:13.788Z,2.13
2019-05-30T12:41:43.088Z,1.80
2019-05-30T12:44:12.115Z,2.60
2019-05-30T12:46:41.485Z,2.53
2019-05-30T12:49:10.586Z,2.53
2019-05-30T12:51:39.861Z,2.33
2019-05-30T12:54:09.139Z,2.40
2019-05-30T12:56:38.234Z,2.73
2019-05-30T12:59:07.543Z,2.70
2019-05-30T13:01:36.730Z,2.27
2019-05-30T13:04:07.255Z,3.07
2019-05-30T13:06:36.445Z,3.20
2019-05-30T13:09:08.422Z,3.00
2019-05-30T13:11:37.955Z,2.30
2019-05-30T13:14:07.368Z,2.47
2019-05-30T13:16:36.892Z,2.90
2019-05-30T13:19:06.391Z,2.70
2019-05-30T13:21:35.571Z,2.80
2019-05-30T13:24:06.027Z,3.57
2019-05-30T13:26:35.364Z,2.67
2019-05-30T13:29:04.491Z,3.40
2019-05-30T13:31:33.694Z,3.37
2019-05-30T13:34:03.349Z,2.77
2019-05-30T13:36:32.719Z,2.80
2019-05-30T13:39:03.150Z,2.80
2019-05-30T13:41:32.453Z,3.27
2019-05-30T13:44:04.410Z,2.50
2019-05-30T13:46:32.396Z,2.50
2019-05-30T13:49:02.602Z,2.77
2019-05-30T13:51:31.956Z,2.93
2019-05-30T13:54:01.136Z,3.43
2019-05-30T13:56:30.640Z,2.90
2019-05-30T13:58:59.783Z,3.20
2019-05-30T14:01:28.899Z,3.33
2019-05-30T14:03:58.243Z,2.67
2019-05-30T14:06:27.439Z,2.40
2019-05-30T14:08:56.590Z,2.13
2019-05-30T14:11:25.655Z,2.30
2019-05-30T14:13:54.851Z,2.50
2019-05-30T14:16:24.180Z,2.40
2019-05-30T14:18:53.412Z,2.17
2019-05-30T14:21:22.684Z,2.07
2019-05-30T14:23:51.839Z,2.10
2019-05-30T14:26:21.037Z,2.50
2019-05-30T14:28:50.288Z,2.27
2019-05-30T14:31:19.414Z,2.43
2019-05-30T14:33:48.811Z,2.23
2019-05-30T14:36:18.140Z,2.40
2019-05-30T14:38:57.894Z,2.30
2019-05-30T14:41:18.333Z,2.17
2019-05-30T14:43:47.380Z,3.00
2019-05-30T14:46:16.795Z,2.37
2019-05-30T14:48:45.933Z,2.40
2019-05-30T14:51:15.129Z,2.70
2019-05-30T14:53:44.481Z,2.47
2019-05-30T14:56:13.691Z,2.67
2019-05-30T14:58:42.798Z,2.77
2019-05-30T15:01:13.396Z,2.60
2019-05-30T15:03:43.171Z,2.40
2019-05-30T15:06:15.877Z,2.60
2019-05-30T15:08:44.777Z,2.00
2019-05-30T15:11:13.947Z,2.60
2019-05-30T15:13:43.289Z,1.97
2019-05-30T15:16:13.006Z,2.10
2019-05-30T15:18:42.486Z,2.10
2019-05-30T15:21:12.536Z,2.07
2019-05-30T15:23:41.871Z,1.60
2019-05-30T15:26:12.089Z,1.90
2019-05-30T15:28:41.383Z,1.60
2019-05-30T15:31:10.584Z,1.90
2019-05-30T15:33:39.652Z,2.10
2019-05-30T15:36:09.075Z,2.40
2019-05-30T15:38:38.246Z,1.70
2019-05-30T15:41:08.664Z,2.80
2019-05-30T15:43:37.995Z,2.00
2019-05-30T15:46:07.821Z,1.90
2019-05-30T15:48:37.014Z,1.90
2019-05-30T15:51:06.251Z,2.10
2019-05-30T15:53:35.401Z,1.73
2019-05-30T15:56:04.805Z,1.70
2019-05-30T15:58:34.008Z,1.53
2019-05-30T16:01:03.101Z,1.33
2019-05-30T16:03:32.374Z,1.63
2019-05-30T16:06:01.460Z,2.17
2019-05-30T16:08:32.683Z,1.50
2019-05-30T16:11:02.168Z,1.50
2019-05-30T16:13:31.389Z,1.50
2019-05-30T16:16:00.452Z,1.70
2019-05-30T16:18:29.935Z,1.80
2019-05-30T16:20:59.058Z,1.60
2019-05-30T16:23:28.440Z,1.80
2019-05-30T16:25:57.849Z,1.67
2019-05-30T16:28:27.474Z,1.37
2019-05-30T16:30:56.879Z,1.60
2019-05-30T16:33:26.395Z,2.73
2019-05-30T16:35:57.416Z,1.60
2019-05-30T16:38:26.992Z,1.63
2019-05-30T16:40:56.714Z,2.00
2019-05-30T16:43:26.623Z,2.00
2019-05-30T16:45:56.110Z,1.80
2019-05-30T16:48:26.634Z,1.53
2019-05-30T16:50:55.790Z,1.50
2019-05-30T16:53:25.912Z,1.80
2019-05-30T16:55:55.166Z,1.40
2019-05-30T16:58:24.383Z,1.63
2019-05-30T17:00:53.471Z,1.70
2019-05-30T17:03:23.719Z,1.73
2019-05-30T17:05:53.986Z,1.70
2019-05-30T17:08:24.491Z,1.77
2019-05-30T17:10:53.862Z,1.77
2019-05-30T17:13:23.822Z,1.60
2019-05-30T17:15:52.993Z,1.83
2019-05-30T17:18:22.419Z,1.50
2019-05-30T17:20:51.850Z,1.80
2019-05-30T17:23:21.368Z,1.70
2019-05-30T17:25:50.426Z,1.83
2019-05-30T17:28:20.344Z,1.77
2019-05-30T17:30:49.771Z,2.03
2019-05-30T17:33:21.541Z,1.97
2019-05-30T17:35:50.179Z,1.80
2019-05-30T17:38:20.405Z,1.90
2019-05-30T17:40:49.838Z,1.87
2019-05-30T17:43:19.289Z,1.70
2019-05-30T17:45:48.337Z,1.60
2019-05-30T17:48:17.524Z,1.70
2019-05-30T17:50:46.590Z,2.00
2019-05-30T17:53:15.854Z,2.10
2019-05-30T17:55:45.139Z,1.80
2019-05-30T17:58:14.253Z,1.97
2019-05-30T18:00:43.486Z,1.50
2019-05-30T18:03:12.857Z,1.90
2019-05-30T18:05:41.960Z,1.60
2019-05-30T18:08:11.130Z,1.77
2019-05-30T18:10:52.969Z,2.00
2019-05-30T18:13:11.511Z,1.90
2019-05-30T18:15:40.829Z,2.53
2019-05-30T18:18:09.927Z,2.10
2019-05-30T18:20:48.292Z,1.83
2019-05-30T18:23:11.326Z,1.90
2019-05-30T18:25:40.372Z,2.77
2019-05-30T18:28:09.518Z,4.17
2019-05-30T18:30:40.958Z,2.90
2019-05-30T18:33:09.999Z,2.30
2019-05-30T18:35:39.298Z,1.60
2019-05-30T18:38:08.568Z,2.90
2019-05-30T18:40:39.643Z,5.43
2019-05-30T18:43:08.837Z,2.20
2019-05-30T18:45:40.008Z,7.57
2019-05-30T18:48:11.106Z,4.70
2019-05-30T18:50:40.784Z,2.43
2019-05-30T18:53:10.562Z,1.73
2019-05-30T18:55:39.741Z,1.90
2019-05-30T18:58:09.094Z,2.20
2019-05-30T19:00:38.450Z,2.30
2019-05-30T19:03:07.575Z,1.83
2019-05-30T19:05:37.102Z,3.10
2019-05-30T19:08:06.904Z,2.50
2019-05-30T19:10:36.588Z,2.20
2019-05-30T19:13:05.873Z,2.20
2019-05-30T19:15:34.947Z,2.17
2019-05-30T19:18:04.020Z,2.00
2019-05-30T19:20:33.913Z,2.23
2019-05-30T19:23:03.573Z,2.10
2019-05-30T19:25:33.970Z,2.20
2019-05-30T19:28:03.226Z,1.87
2019-05-30T19:30:32.862Z,2.17
2019-05-30T19:33:02.083Z,2.20
2019-05-30T19:35:31.444Z,2.27
2019-05-30T19:38:00.703Z,2.50
2019-05-30T19:40:29.902Z,2.60
2019-05-30T19:42:58.991Z,3.00
2019-05-30T19:45:28.128Z,2.43
2019-05-30T19:47:57.450Z,2.20
2019-05-30T19:50:26.577Z,2.30
2019-05-30T19:52:56.039Z,2.30
2019-05-30T19:55:25.184Z,2.40
2019-05-30T19:57:54.255Z,2.43
2019-05-30T20:00:23.836Z,2.20
2019-05-30T20:02:52.969Z,2.07
2019-05-30T20:05:22.138Z,2.60
2019-05-30T20:07:51.299Z,2.07
2019-05-30T20:10:20.570Z,2.10
2019-05-30T20:12:49.826Z,2.30
2019-05-30T20:15:18.994Z,2.30
2019-05-30T20:17:48.179Z,2.17
2019-05-30T20:20:17.670Z,2.47
2019-05-30T20:22:46.840Z,2.70
2019-05-30T20:25:16.227Z,2.47
2019-05-30T20:27:45.305Z,3.07
2019-05-30T20:30:15.039Z,2.90
2019-05-30T20:32:44.258Z,2.57
2019-05-30T20:35:13.975Z,2.90
2019-05-30T20:37:44.907Z,2.30
2019-05-30T20:40:14.446Z,2.73
2019-05-30T20:42:43.506Z,2.57
2019-05-30T20:45:14.478Z,2.60
2019-05-30T20:47:44.458Z,2.90
2019-05-30T20:50:15.164Z,2.93
2019-05-30T20:52:45.630Z,3.17
2019-05-30T20:55:16.589Z,3.63
2019-05-30T20:57:46.908Z,3.33
2019-05-30T21:00:16.978Z,3.43
2019-05-30T21:02:47.161Z,3.40
2019-05-30T21:05:16.865Z,3.47
2019-05-30T21:07:46.610Z,3.13
2019-05-30T21:10:15.930Z,2.93
2019-05-30T21:12:47.794Z,3.00
2019-05-30T21:15:16.712Z,3.47
2019-05-30T21:17:46.867Z,3.00
2019-05-30T21:20:16.424Z,3.30
2019-05-30T21:22:46.696Z,3.50
2019-05-30T21:25:15.989Z,3.30
2019-05-30T21:27:45.320Z,3.20
2019-05-30T21:30:15.033Z,3.50
2019-05-30T21:32:46.277Z,3.90
2019-05-30T21:35:15.617Z,3.20
2019-05-30T21:37:45.819Z,3.30
2019-05-30T21:40:15.122Z,3.60
2019-05-30T21:42:57.842Z,3.47
2019-05-30T21:45:15.293Z,3.80
2019-05-30T21:47:44.823Z,3.57
2019-05-30T21:50:15.885Z,3.80
2019-05-30T21:52:46.328Z,4.10
2019-05-30T21:55:18.002Z,4.03
2019-05-30T21:57:48.138Z,4.23
2019-05-30T22:00:18.800Z,4.33
2019-05-30T22:02:53.288Z,4.60
2019-05-30T22:05:22.763Z,4.83
2019-05-30T22:07:51.829Z,4.63
2019-05-30T22:10:21.115Z,5.07
2019-05-30T22:12:50.361Z,4.53
2019-05-30T22:15:19.573Z,4.30
2019-05-30T22:17:49.849Z,3.90
2019-05-30T22:20:18.978Z,3.70
2019-05-30T22:22:48.240Z,4.20
2019-05-30T22:25:17.297Z,4.07
2019-05-30T22:27:46.806Z,4.50
2019-05-30T22:30:15.982Z,4.43
2019-05-30T22:32:45.096Z,4.20
2019-05-30T22:35:14.275Z,4.03
2019-05-30T22:37:44.703Z,5.00
2019-05-30T22:40:13.798Z,4.40
2019-05-30T22:42:44.053Z,4.27
2019-05-30T22:45:13.466Z,3.60
2019-05-30T22:47:42.732Z,4.07
2019-05-30T22:50:11.906Z,4.13
2019-05-30T22:52:40.933Z,4.23
2019-05-30T22:55:10.145Z,4.00
2019-05-30T22:57:39.448Z,4.20
2019-05-30T23:00:08.964Z,4.10
2019-05-30T23:02:38.123Z,4.73
2019-05-30T23:05:07.232Z,4.30
2019-05-30T23:07:36.346Z,4.33
2019-05-30T23:10:05.869Z,3.93
2019-05-30T23:12:34.953Z,3.60
2019-05-30T23:15:04.358Z,3.93
2019-05-30T23:17:33.419Z,4.30
2019-05-30T23:20:02.495Z,3.90
2019-05-30T23:22:31.551Z,3.80
2019-05-30T23:25:00.635Z,4.37
2019-05-30T23:27:29.922Z,3.80
2019-05-30T23:29:59.112Z,3.40
2019-05-30T23:32:28.373Z,4.30
2019-05-30T23:34:58.660Z,4.10
2019-05-30T23:37:27.788Z,4.00
2019-05-30T23:39:57.030Z,3.70
2019-05-30T23:42:26.123Z,4.37
2019-05-30T23:44:55.522Z,4.57
2019-05-30T23:47:24.651Z,3.87
2019-05-30T23:49:53.946Z,4.13
2019-05-30T23:52:23.436Z,4.50
2019-05-30T23:54:52.582Z,4.57
2019-05-30T23:57:21.633Z,4.03
2019-05-30T23:59:52.701Z,4.80
